createdAt,value
2019-02-24T00:01:17.439Z,21.80
2019-02-24T00:03:43.973Z,21.70
2019-02-24T00:06:10.519Z,21.80
2019-02-24T00:08:37.250Z,21.70
2019-02-24T00:11:03.883Z,21.70
2019-02-24T00:13:30.371Z,21.80
2019-02-24T00:15:56.958Z,21.70
2019-02-24T00:18:23.432Z,21.70
2019-02-24T00:20:49.929Z,21.70
2019-02-24T00:23:16.472Z,21.70
2019-02-24T00:25:43.097Z,21.70
2019-02-24T00:28:09.628Z,21.80
2019-02-24T00:30:36.489Z,21.70
2019-02-24T00:33:03.311Z,21.80
2019-02-24T00:35:29.845Z,21.80
2019-02-24T00:37:56.870Z,21.80
2019-02-24T00:40:23.625Z,21.80
2019-02-24T00:42:50.537Z,21.80
2019-02-24T00:45:17.211Z,21.70
2019-02-24T00:47:43.744Z,21.70
2019-02-24T00:50:10.282Z,21.70
2019-02-24T00:52:37.137Z,21.80
2019-02-24T00:55:03.659Z,21.70
2019-02-24T00:57:30.501Z,21.70
2019-02-24T00:59:57.349Z,21.70
2019-02-24T01:02:24.178Z,21.70
2019-02-24T01:04:51.023Z,21.70
2019-02-24T01:07:17.642Z,21.70
2019-02-24T01:09:44.402Z,21.70
2019-02-24T01:12:11.236Z,21.70
2019-02-24T01:14:38.078Z,21.70
2019-02-24T01:17:04.616Z,21.70
2019-02-24T01:19:31.152Z,21.70
2019-02-24T01:21:58.000Z,21.70
2019-02-24T01:24:24.524Z,21.70
2019-02-24T01:26:51.067Z,21.70
2019-02-24T01:29:18.822Z,21.70
2019-02-24T01:31:45.355Z,21.70
2019-02-24T01:34:12.198Z,21.70
2019-02-24T01:36:38.814Z,21.70
2019-02-24T01:39:05.580Z,21.70
2019-02-24T01:41:32.107Z,21.70
2019-02-24T01:43:58.961Z,21.70
2019-02-24T01:46:25.485Z,21.70
2019-02-24T01:48:52.025Z,21.70
2019-02-24T01:51:18.906Z,21.70
2019-02-24T01:53:45.713Z,21.70
2019-02-24T01:56:12.239Z,21.70
2019-02-24T01:58:38.858Z,21.70
2019-02-24T02:01:05.623Z,21.70
2019-02-24T02:03:32.479Z,21.60
2019-02-24T02:05:58.964Z,21.60
2019-02-24T02:08:25.523Z,21.70
2019-02-24T02:10:52.064Z,21.70
2019-02-24T02:13:18.695Z,21.70
2019-02-24T02:15:45.434Z,21.60
2019-02-24T02:18:12.277Z,21.70
2019-02-24T02:20:39.127Z,21.70
2019-02-24T02:23:05.663Z,21.70
2019-02-24T02:25:32.297Z,21.70
2019-02-24T02:27:59.032Z,21.70
2019-02-24T02:30:25.563Z,21.60
2019-02-24T02:32:52.404Z,21.60
2019-02-24T02:35:19.260Z,21.60
2019-02-24T02:37:45.782Z,21.60
2019-02-24T02:40:12.321Z,21.60
2019-02-24T02:42:39.471Z,21.60
2019-02-24T02:45:06.084Z,21.60
2019-02-24T02:47:32.841Z,21.60
2019-02-24T02:49:59.684Z,21.60
2019-02-24T02:52:26.220Z,21.60
2019-02-24T02:54:52.751Z,21.60
2019-02-24T02:57:19.593Z,21.60
2019-02-24T02:59:46.132Z,21.60
2019-02-24T03:02:12.660Z,21.60
2019-02-24T03:04:39.200Z,21.50
2019-02-24T03:07:05.752Z,21.60
2019-02-24T03:09:32.272Z,21.50
2019-02-24T03:11:59.108Z,21.50
2019-02-24T03:14:25.642Z,21.60
2019-02-24T03:16:52.482Z,21.60
2019-02-24T03:19:19.325Z,21.60
2019-02-24T03:21:45.860Z,21.50
2019-02-24T03:32:01.190Z,21.60
2019-02-24T03:34:27.722Z,21.60
2019-02-24T03:36:54.603Z,21.50
2019-02-24T03:39:21.403Z,21.60
2019-02-24T03:41:47.952Z,21.50
2019-02-24T03:44:14.776Z,21.60
2019-02-24T03:46:41.619Z,21.50
2019-02-24T03:49:08.151Z,21.60
2019-02-24T03:51:34.993Z,21.50
2019-02-24T03:54:01.840Z,21.50
2019-02-24T03:56:28.376Z,21.60
2019-02-24T03:58:54.916Z,21.50
2019-02-24T04:01:21.745Z,21.50
2019-02-24T04:03:48.587Z,21.50
2019-02-24T04:06:15.123Z,21.50
2019-02-24T04:08:41.656Z,21.50
2019-02-24T04:11:08.499Z,21.50
2019-02-24T04:13:35.343Z,21.50
2019-02-24T04:16:01.878Z,21.50
2019-02-24T04:18:28.771Z,21.50
2019-02-24T04:20:55.562Z,21.50
2019-02-24T04:23:22.093Z,21.50
2019-02-24T04:25:48.945Z,21.50
2019-02-24T04:28:15.471Z,21.50
2019-02-24T04:30:42.010Z,21.50
2019-02-24T04:33:08.541Z,21.50
2019-02-24T04:35:35.378Z,21.50
2019-02-24T04:38:02.225Z,21.50
2019-02-24T04:40:28.757Z,21.50
2019-02-24T04:42:55.291Z,21.50
2019-02-24T04:45:22.130Z,21.40
2019-02-24T04:47:48.672Z,21.40
2019-02-24T04:50:15.512Z,21.40
2019-02-24T04:52:42.348Z,21.40
2019-02-24T04:55:08.885Z,21.40
2019-02-24T04:57:35.426Z,21.40
2019-02-24T05:00:01.954Z,21.40
2019-02-24T05:02:28.794Z,21.40
2019-02-24T05:04:55.333Z,21.40
2019-02-24T05:07:21.869Z,21.40
2019-02-24T05:09:48.705Z,21.40
2019-02-24T05:12:15.237Z,21.40
2019-02-24T05:14:42.081Z,21.40
2019-02-24T05:17:08.616Z,21.40
2019-02-24T05:19:35.151Z,21.40
2019-02-24T05:22:01.684Z,21.40
2019-02-24T05:24:28.224Z,21.40
2019-02-24T05:26:55.070Z,21.30
2019-02-24T05:29:21.594Z,21.30
2019-02-24T05:31:48.133Z,21.30
2019-02-24T05:34:14.665Z,21.30
2019-02-24T05:36:41.199Z,21.30
2019-02-24T05:39:08.050Z,21.30
2019-02-24T05:41:34.580Z,21.30
2019-02-24T05:44:01.413Z,21.30
2019-02-24T05:46:27.955Z,21.30
2019-02-24T05:48:54.805Z,21.30
2019-02-24T05:51:21.633Z,21.30
2019-02-24T05:53:48.171Z,21.30
2019-02-24T05:56:14.709Z,21.30
2019-02-24T05:58:41.549Z,21.30
2019-02-24T06:01:08.385Z,21.20
2019-02-24T06:03:35.239Z,21.30
2019-02-24T06:06:01.764Z,21.30
2019-02-24T06:08:28.399Z,21.30
2019-02-24T06:10:55.145Z,21.30
2019-02-24T06:13:21.683Z,21.30
2019-02-24T06:15:48.521Z,21.30
2019-02-24T06:18:15.065Z,21.30
2019-02-24T06:20:41.583Z,21.30
2019-02-24T06:23:08.429Z,21.30
2019-02-24T06:25:34.958Z,21.30
2019-02-24T06:28:01.806Z,21.30
2019-02-24T06:30:28.339Z,21.30
2019-02-24T06:32:54.885Z,21.30
2019-02-24T06:35:21.404Z,21.30
2019-02-24T06:37:48.245Z,21.30
2019-02-24T06:40:15.094Z,21.30
2019-02-24T06:42:41.624Z,21.20
2019-02-24T06:45:08.166Z,21.30
2019-02-24T06:47:34.699Z,21.30
2019-02-24T06:50:01.254Z,21.20
2019-02-24T06:52:28.205Z,21.20
2019-02-24T06:54:54.908Z,21.20
2019-02-24T06:57:21.450Z,21.20
2019-02-24T06:59:47.989Z,21.20
2019-02-24T07:02:14.822Z,21.20
2019-02-24T07:04:41.663Z,21.20
2019-02-24T07:07:08.199Z,21.20
2019-02-24T07:09:34.738Z,21.20
2019-02-24T07:12:01.576Z,21.20
2019-02-24T07:14:28.108Z,21.30
2019-02-24T07:16:54.950Z,21.30
2019-02-24T07:19:21.482Z,21.30
2019-02-24T07:21:48.327Z,21.20
2019-02-24T07:24:14.869Z,21.20
2019-02-24T07:26:41.392Z,21.20
2019-02-24T07:29:08.001Z,21.20
2019-02-24T07:31:34.773Z,21.20
2019-02-24T07:34:01.624Z,21.20
2019-02-24T07:36:28.147Z,21.20
2019-02-24T07:38:54.681Z,21.20
2019-02-24T07:41:21.556Z,21.20
2019-02-24T07:43:48.370Z,21.20
2019-02-24T07:46:15.208Z,21.20
2019-02-24T07:48:41.743Z,21.20
2019-02-24T07:51:08.581Z,21.20
2019-02-24T07:53:35.437Z,21.20
2019-02-24T07:56:01.961Z,21.20
2019-02-24T07:58:28.496Z,21.20
2019-02-24T08:00:55.033Z,21.20
2019-02-24T08:03:21.880Z,21.20
2019-02-24T08:05:48.720Z,21.20
2019-02-24T08:08:16.638Z,21.20
2019-02-24T08:10:43.627Z,21.20
2019-02-24T08:13:10.162Z,21.20
2019-02-24T08:15:37.002Z,21.20
2019-02-24T08:18:03.846Z,21.20
2019-02-24T08:20:30.374Z,21.20
2019-02-24T08:22:57.228Z,21.20
2019-02-24T08:25:23.751Z,21.20
2019-02-24T08:27:50.285Z,21.20
2019-02-24T08:30:16.818Z,21.20
2019-02-24T08:32:43.352Z,21.30
2019-02-24T08:35:10.200Z,21.30
2019-02-24T08:37:36.727Z,21.30
2019-02-24T08:40:03.271Z,21.30
2019-02-24T08:42:30.113Z,21.20
2019-02-24T08:44:56.639Z,21.20
2019-02-24T08:47:23.279Z,21.20
2019-02-24T08:49:50.061Z,21.20
2019-02-24T08:52:16.859Z,21.20
2019-02-24T08:54:43.720Z,21.20
2019-02-24T08:57:10.235Z,21.20
2019-02-24T08:59:38.273Z,21.20
2019-02-24T09:02:05.154Z,21.20
2019-02-24T09:04:31.689Z,21.30
2019-02-24T09:06:58.523Z,21.30
2019-02-24T09:09:25.059Z,21.30
2019-02-24T09:11:51.591Z,21.30
2019-02-24T09:14:18.130Z,21.30
2019-02-24T09:16:44.663Z,21.30
2019-02-24T09:19:11.500Z,21.30
2019-02-24T09:21:38.038Z,21.30
2019-02-24T09:24:04.894Z,21.30
2019-02-24T09:26:31.724Z,21.30
2019-02-24T09:28:58.200Z,21.30
2019-02-24T09:31:25.405Z,21.30
2019-02-24T09:33:51.939Z,21.30
2019-02-24T09:36:18.790Z,21.30
2019-02-24T09:38:45.626Z,21.30
2019-02-24T09:41:12.256Z,21.30
2019-02-24T09:43:38.998Z,21.30
2019-02-24T09:46:05.530Z,21.30
2019-02-24T09:48:32.371Z,21.30
2019-02-24T09:50:58.832Z,21.30
2019-02-24T09:53:25.700Z,21.30
2019-02-24T09:55:52.286Z,21.30
2019-02-24T09:58:18.820Z,21.30
2019-02-24T10:00:45.659Z,21.30
2019-02-24T10:03:12.512Z,21.30
2019-02-24T10:05:39.166Z,21.30
2019-02-24T10:08:05.754Z,21.30
2019-02-24T10:10:32.414Z,21.30
2019-02-24T10:12:59.154Z,21.40
2019-02-24T10:15:25.787Z,21.30
2019-02-24T10:17:52.323Z,21.30
2019-02-24T10:20:18.953Z,21.30
2019-02-24T10:22:45.697Z,21.30
2019-02-24T10:25:12.239Z,21.40
2019-02-24T10:27:38.771Z,21.30
2019-02-24T10:30:05.315Z,21.40
2019-02-24T10:32:32.145Z,21.40
2019-02-24T10:34:58.677Z,21.40
2019-02-24T10:37:25.223Z,21.40
2019-02-24T10:39:51.750Z,21.40
2019-02-24T10:42:18.602Z,21.40
2019-02-24T10:44:45.206Z,21.40
2019-02-24T10:47:11.970Z,21.40
2019-02-24T10:49:38.502Z,21.40
2019-02-24T10:52:05.035Z,21.40
2019-02-24T10:54:31.574Z,21.40
2019-02-24T10:56:58.423Z,21.40
2019-02-24T10:59:24.950Z,21.40
2019-02-24T11:01:51.784Z,21.40
2019-02-24T11:04:18.328Z,21.40
2019-02-24T11:06:45.162Z,21.40
2019-02-24T11:09:12.010Z,21.40
2019-02-24T11:11:38.852Z,21.40
2019-02-24T11:14:05.696Z,21.40
2019-02-24T11:16:32.314Z,21.40
2019-02-24T11:18:59.064Z,21.40
2019-02-24T11:21:25.907Z,21.40
2019-02-24T11:23:52.442Z,21.50
2019-02-24T11:26:19.290Z,21.40
2019-02-24T11:28:45.818Z,21.40
2019-02-24T11:31:12.351Z,21.50
2019-02-24T11:33:39.201Z,21.50
2019-02-24T11:36:05.646Z,21.50
2019-02-24T11:38:32.572Z,21.50
2019-02-24T11:40:59.409Z,21.50
2019-02-24T11:43:25.862Z,21.50
2019-02-24T11:45:52.482Z,21.50
2019-02-24T11:48:19.020Z,21.50
2019-02-24T11:50:45.858Z,21.60
2019-02-24T11:53:12.704Z,21.60
2019-02-24T11:55:39.239Z,21.60
2019-02-24T11:58:06.074Z,21.50
2019-02-24T12:00:32.914Z,21.50
2019-02-24T12:02:59.452Z,21.50
2019-02-24T12:05:25.985Z,21.50
2019-02-24T12:07:52.826Z,21.50
2019-02-24T12:10:19.672Z,21.50
2019-02-24T12:12:46.510Z,21.50
2019-02-24T12:15:13.048Z,21.50
2019-02-24T12:17:39.590Z,21.60
2019-02-24T12:20:06.421Z,21.60
2019-02-24T12:22:33.293Z,21.60
2019-02-24T12:25:00.420Z,21.60
2019-02-24T12:27:27.031Z,21.60
2019-02-24T12:29:53.807Z,21.70
2019-02-24T12:32:20.625Z,21.80
2019-02-24T12:34:47.468Z,22.20
2019-02-24T12:37:15.081Z,22.60
2019-02-24T12:39:41.766Z,23.00
2019-02-24T12:42:08.615Z,23.00
2019-02-24T12:44:35.157Z,23.10
2019-02-24T12:47:01.984Z,22.70
2019-02-24T12:49:28.516Z,22.50
2019-02-24T12:51:55.359Z,22.50
2019-02-24T12:54:21.894Z,22.40
2019-02-24T12:56:48.431Z,22.30
2019-02-24T12:59:15.273Z,22.20
2019-02-24T13:01:42.112Z,22.10
2019-02-24T13:04:09.101Z,22.00
2019-02-24T13:06:35.796Z,22.00
2019-02-24T13:09:02.347Z,22.00
2019-02-24T13:11:29.171Z,22.00
2019-02-24T13:13:55.715Z,22.00
2019-02-24T13:16:22.843Z,21.90
2019-02-24T13:18:49.389Z,21.90
2019-02-24T13:21:16.418Z,21.90
2019-02-24T13:23:43.274Z,21.80
2019-02-24T13:26:09.754Z,21.80
2019-02-24T13:28:36.457Z,21.80
2019-02-24T13:31:02.990Z,21.80
2019-02-24T13:33:29.516Z,22.00
2019-02-24T13:35:56.494Z,22.40
2019-02-24T13:38:23.201Z,22.70
2019-02-24T13:40:50.044Z,22.70
2019-02-24T13:43:16.853Z,22.60
2019-02-24T13:45:43.425Z,22.40
2019-02-24T13:48:10.035Z,22.30
2019-02-24T13:50:36.798Z,22.20
2019-02-24T13:53:03.332Z,22.10
2019-02-24T13:55:29.860Z,22.10
2019-02-24T13:57:56.398Z,22.10
2019-02-24T14:00:22.931Z,22.10
2019-02-24T14:02:49.772Z,22.00
2019-02-24T14:05:16.307Z,22.00
2019-02-24T14:07:42.846Z,21.90
2019-02-24T14:10:09.381Z,21.80
2019-02-24T14:12:36.220Z,21.80
2019-02-24T14:15:02.751Z,21.80
2019-02-24T14:17:29.592Z,21.80
2019-02-24T14:19:56.133Z,21.80
2019-02-24T14:22:22.969Z,21.80
2019-02-24T14:24:49.812Z,21.70
2019-02-24T14:27:16.354Z,21.70
2019-02-24T14:29:42.890Z,21.70
2019-02-24T14:32:09.741Z,21.70
2019-02-24T14:34:36.600Z,21.70
2019-02-24T14:37:03.408Z,21.70
2019-02-24T14:39:30.249Z,21.70
2019-02-24T14:41:56.781Z,21.70
2019-02-24T14:44:23.633Z,21.70
2019-02-24T14:46:50.194Z,21.70
2019-02-24T14:49:16.954Z,21.70
2019-02-24T14:51:43.767Z,21.70
2019-02-24T14:54:10.343Z,21.70
2019-02-24T14:56:36.867Z,21.70
2019-02-24T14:59:03.366Z,21.70
2019-02-24T15:01:29.979Z,21.70
2019-02-24T15:03:56.830Z,21.70
2019-02-24T15:06:23.900Z,21.70
2019-02-24T15:08:50.400Z,21.70
2019-02-24T15:11:16.883Z,21.70
2019-02-24T15:13:43.414Z,21.70
2019-02-24T15:16:11.844Z,21.70
2019-02-24T15:18:38.810Z,21.70
2019-02-24T15:21:06.237Z,21.70
2019-02-24T15:23:33.096Z,21.70
2019-02-24T15:25:59.945Z,21.70
2019-02-24T15:28:26.771Z,21.70
2019-02-24T15:30:53.514Z,21.60
2019-02-24T15:33:20.501Z,21.60
2019-02-24T15:35:47.034Z,21.70
2019-02-24T15:38:14.654Z,21.60
2019-02-24T15:40:41.337Z,21.60
2019-02-24T15:43:08.616Z,21.60
2019-02-24T15:45:35.288Z,21.60
2019-02-24T15:48:02.426Z,21.60
2019-02-24T15:50:29.273Z,21.60
2019-02-24T15:52:55.807Z,21.60
2019-02-24T15:55:22.655Z,21.60
2019-02-24T15:57:49.531Z,21.60
2019-02-24T16:00:16.948Z,21.60
2019-02-24T16:02:44.096Z,21.60
2019-02-24T16:05:10.943Z,21.60
2019-02-24T16:07:37.777Z,21.60
2019-02-24T16:10:04.928Z,21.60
2019-02-24T16:12:31.455Z,21.60
2019-02-24T16:14:57.987Z,21.60
2019-02-24T16:17:24.840Z,21.60
2019-02-24T16:19:51.326Z,21.60
2019-02-24T16:22:18.207Z,21.60
2019-02-24T16:24:44.746Z,21.60
2019-02-24T16:27:11.584Z,21.50
2019-02-24T16:29:38.424Z,21.50
2019-02-24T16:32:04.968Z,21.50
2019-02-24T16:34:31.810Z,21.60
2019-02-24T16:36:58.643Z,21.50
2019-02-24T16:39:25.269Z,21.50
2019-02-24T16:41:52.008Z,21.50
2019-02-24T16:44:18.594Z,21.50
2019-02-24T16:46:45.397Z,21.50
2019-02-24T16:49:11.935Z,21.50
2019-02-24T16:51:38.776Z,21.50
2019-02-24T16:54:05.617Z,21.50
2019-02-24T16:56:32.157Z,21.50
2019-02-24T16:58:58.682Z,21.50
2019-02-24T17:01:25.538Z,21.50
2019-02-24T17:03:52.349Z,21.50
2019-02-24T17:06:18.900Z,21.50
2019-02-24T17:08:52.084Z,21.50
2019-02-24T17:11:13.827Z,21.50
2019-02-24T17:13:40.653Z,21.50
2019-02-24T17:16:07.543Z,21.50
2019-02-24T17:18:34.348Z,21.50
2019-02-24T17:21:01.179Z,21.40
2019-02-24T17:23:28.534Z,21.50
2019-02-24T17:25:55.950Z,21.50
2019-02-24T17:28:22.934Z,21.40
2019-02-24T17:33:35.361Z,21.50
2019-02-24T17:36:01.923Z,21.40
2019-02-24T17:38:28.740Z,21.40
2019-02-24T17:40:55.572Z,21.40
2019-02-24T17:43:22.113Z,21.40
2019-02-24T17:45:48.957Z,21.40
2019-02-24T17:48:15.483Z,21.40
2019-02-24T17:50:42.032Z,21.40
2019-02-24T17:53:08.557Z,21.40
2019-02-24T17:55:35.401Z,21.40
2019-02-24T17:58:02.785Z,21.40
2019-02-24T18:00:29.696Z,21.40
2019-02-24T18:02:56.288Z,21.40
2019-02-24T18:05:22.931Z,21.40
2019-02-24T18:07:52.677Z,21.40
2019-02-24T18:10:19.297Z,21.40
2019-02-24T18:12:46.070Z,21.40
2019-02-24T18:15:12.899Z,21.40
2019-02-24T18:17:39.430Z,21.30
2019-02-24T18:20:05.967Z,21.30
2019-02-24T18:22:32.802Z,21.30
2019-02-24T18:25:03.181Z,21.40
2019-02-24T18:27:28.026Z,21.30
2019-02-24T18:29:55.137Z,21.30
2019-02-24T18:32:22.015Z,21.30
2019-02-24T18:34:49.166Z,21.30
2019-02-24T18:37:15.634Z,21.30
2019-02-24T18:39:42.148Z,21.30
2019-02-24T18:42:08.663Z,21.30
2019-02-24T18:44:35.133Z,21.30
2019-02-24T18:47:01.680Z,21.30
2019-02-24T18:49:28.166Z,21.30
2019-02-24T18:51:54.903Z,21.30
2019-02-24T18:54:21.815Z,21.30
2019-02-24T18:56:48.595Z,21.30
2019-02-24T18:59:15.130Z,21.30
2019-02-24T19:01:41.598Z,21.30
2019-02-24T19:04:08.346Z,21.30
2019-02-24T19:06:39.187Z,21.30
2019-02-24T19:09:03.725Z,21.30
2019-02-24T19:11:30.556Z,21.20
2019-02-24T19:13:57.091Z,21.30
2019-02-24T19:16:23.727Z,21.30
2019-02-24T19:18:50.479Z,21.30
2019-02-24T19:21:17.563Z,21.30
2019-02-24T19:23:44.457Z,21.30
2019-02-24T19:26:10.996Z,21.30
2019-02-24T19:28:37.530Z,21.30
2019-02-24T19:31:04.374Z,21.30
2019-02-24T19:33:30.826Z,21.30
2019-02-24T19:35:57.441Z,21.30
2019-02-24T19:38:23.971Z,21.20
2019-02-24T19:40:50.513Z,21.20
2019-02-24T19:43:17.042Z,21.20
2019-02-24T19:45:43.888Z,21.30
2019-02-24T19:48:10.722Z,21.20
2019-02-24T19:50:37.570Z,21.20
2019-02-24T19:53:04.408Z,21.20
2019-02-24T19:55:31.339Z,21.20
2019-02-24T19:57:57.886Z,21.20
2019-02-24T20:00:24.624Z,21.20
2019-02-24T20:02:51.473Z,21.20
2019-02-24T20:05:18.023Z,21.20
2019-02-24T20:07:45.873Z,21.20
2019-02-24T20:10:15.335Z,21.20
2019-02-24T20:12:41.606Z,21.20
2019-02-24T20:15:08.139Z,21.20
2019-02-24T20:17:34.682Z,21.20
2019-02-24T20:20:01.205Z,21.20
2019-02-24T20:22:27.738Z,21.20
2019-02-24T20:24:54.272Z,21.20
2019-02-24T20:27:21.114Z,21.20
2019-02-24T20:29:47.650Z,21.20
2019-02-24T20:32:14.498Z,21.20
2019-02-24T20:34:41.022Z,21.20
2019-02-24T20:37:08.176Z,21.30
2019-02-24T20:39:34.708Z,21.20
2019-02-24T20:42:01.244Z,21.30
2019-02-24T20:44:28.090Z,21.30
2019-02-24T20:46:54.924Z,21.30
2019-02-24T20:49:22.079Z,21.30
2019-02-24T20:51:48.922Z,21.30
2019-02-24T20:54:15.456Z,21.30
2019-02-24T20:56:41.988Z,21.30
2019-02-24T20:59:08.885Z,21.30
2019-02-24T21:01:35.669Z,21.30
2019-02-24T21:04:02.512Z,21.40
2019-02-24T21:06:29.046Z,21.40
2019-02-24T21:08:55.579Z,21.40
2019-02-24T21:11:22.118Z,21.40
2019-02-24T21:13:48.897Z,21.40
2019-02-24T21:16:15.502Z,21.40
2019-02-24T21:18:42.021Z,21.40
2019-02-24T21:21:08.864Z,21.40
2019-02-24T21:23:35.709Z,21.40
2019-02-24T21:26:03.859Z,21.40
2019-02-24T21:28:30.648Z,21.40
2019-02-24T21:30:57.461Z,21.40
2019-02-24T21:33:24.319Z,21.40
2019-02-24T21:35:51.767Z,21.40
2019-02-24T21:38:18.600Z,21.50
2019-02-24T21:40:45.449Z,21.50
2019-02-24T21:43:12.299Z,21.50
2019-02-24T21:45:38.830Z,21.50
2019-02-24T21:48:05.666Z,21.50
2019-02-24T21:50:32.510Z,21.50
2019-02-24T21:52:59.443Z,21.50
2019-02-24T21:55:26.182Z,21.50
2019-02-24T21:57:52.732Z,21.50
2019-02-24T22:00:19.546Z,21.50
2019-02-24T22:02:47.122Z,21.50
2019-02-24T22:05:13.765Z,21.50
2019-02-24T22:07:40.889Z,21.50
2019-02-24T22:10:07.852Z,21.50
2019-02-24T22:12:34.382Z,21.50
2019-02-24T22:15:01.224Z,21.50
2019-02-24T22:17:27.755Z,21.50
2019-02-24T22:19:54.290Z,21.50
2019-02-24T22:22:20.826Z,21.50
2019-02-24T22:24:47.359Z,21.50
2019-02-24T22:27:14.215Z,21.50
2019-02-24T22:29:41.356Z,21.50
2019-02-24T22:32:07.888Z,21.50
2019-02-24T22:34:35.084Z,21.50
2019-02-24T22:37:01.650Z,21.50
2019-02-24T22:39:28.298Z,21.50
2019-02-24T22:41:54.964Z,21.50
2019-02-24T22:44:21.798Z,21.50
2019-02-24T22:46:48.321Z,21.50
2019-02-24T22:49:15.172Z,21.50
2019-02-24T22:51:42.004Z,21.50
2019-02-24T22:54:08.542Z,21.60
2019-02-24T22:56:35.074Z,21.50
2019-02-24T22:59:01.610Z,21.50
2019-02-24T23:01:28.430Z,21.50
2019-02-24T23:03:55.295Z,21.50
2019-02-24T23:06:21.837Z,21.50
2019-02-24T23:08:48.361Z,21.60
2019-02-24T23:11:15.205Z,21.50
2019-02-24T23:13:42.052Z,21.50
2019-02-24T23:16:09.096Z,21.50
2019-02-24T23:18:35.728Z,21.60
2019-02-24T23:21:02.668Z,21.60
2019-02-24T23:23:29.414Z,21.50
2019-02-24T23:25:55.949Z,21.60
2019-02-24T23:28:22.788Z,21.50
2019-02-24T23:30:49.321Z,21.50
2019-02-24T23:33:16.178Z,21.60
2019-02-24T23:35:43.012Z,21.60
2019-02-24T23:38:09.551Z,21.50
2019-02-24T23:40:36.379Z,21.50
2019-02-24T23:43:03.223Z,21.60
2019-02-24T23:45:30.066Z,21.60
2019-02-24T23:47:56.523Z,21.60
2019-02-24T23:50:23.131Z,21.60
2019-02-24T23:52:49.768Z,21.60
2019-02-24T23:55:16.510Z,21.60
2019-02-24T23:57:43.297Z,21.60
